Jacarei, Brazil
Current Conditions -  °F | °C
As of 11:00 AM on Friday 24 Oct 2014 (Local Time) from SBSJ Reporting Station
Clear Clear  
Wind Chill: 81°   Ceiling: Unl
Heat Index: 81°   Visibility: 6mi
Dew Point: 59°   Wind: 3mph
Humidity: 48%   Direction: 340°NNW
Pressure: 30.09"   Gusts: NA
Location:  23.3°S, 45.96°W
Report Text: SBSJ 241300Z 34003KT CAVOK 27/15 Q1019
Loading
Personal Weather Stations






























Interactive Weather Map
Tropical Storm Tracking
New forecast layout! Learn more

10-Day Weather Forecast

Advertisements
Track Severe Weather on mobile